Time;durP1;ratioP1;P1;durP2;ratioP2;P2;SDS_P1;SDS_P2;PMS_P1;PMS_P2;Temp;Humidity;BMP_temperature;BMP_pressure;BME280_temperature;BME280_humidity;BME280_pressure;Samples;Min_cycle;Max_cycle;Signal;HPM_P1;HPM_P2
2022/01/17 00:01:21;;;;;;;38.30;13.75;;;1.60;99.90;;;;;;4957032;28;20843;-66
2022/01/17 00:03:56;;;;;;;37.53;13.95;;;1.70;99.90;;;;;;4953267;28;20166;-66
2022/01/17 00:06:22;;;;;;;38.03;13.85;;;1.70;99.90;;;;;;4953541;28;20163;-65
2022/01/17 00:08:50;;;;;;;35.38;13.57;;;1.70;99.90;;;;;;4952434;28;20055;-65
2022/01/17 00:11:20;;;;;;;36.53;14.25;;;1.80;99.90;;;;;;4952028;28;20375;-66
2022/01/17 00:13:48;;;;;;;39.88;13.48;;;1.80;99.90;;;;;;4950081;28;20035;-65
2022/01/17 00:16:28;;;;;;;34.40;11.88;;;1.80;99.90;;;;;;4953212;28;20023;-66
2022/01/17 00:19:30;;;;;;;33.72;11.85;;;1.80;99.90;;;;;;4951853;28;20035;-65
2022/01/17 00:21:49;;;;;;;35.88;12.52;;;1.80;99.90;;;;;;4951789;28;20039;-65
2022/01/17 00:24:16;;;;;;;38.85;14.90;;;1.80;99.90;;;;;;4952583;28;20035;-64
2022/01/17 00:26:46;;;;;;;34.03;13.82;;;1.90;99.90;;;;;;4956909;28;20184;-66
2022/01/17 00:29:15;;;;;;;43.85;15.48;;;2.00;99.90;;;;;;4951138;28;20045;-66
2022/01/17 00:31:41;;;;;;;39.42;14.65;;;1.90;99.90;;;;;;4950504;28;20031;-68
2022/01/17 00:34:06;;;;;;;35.03;13.85;;;2.00;99.90;;;;;;4950063;28;20045;-68
2022/01/17 00:36:32;;;;;;;38.58;14.63;;;1.90;99.90;;;;;;4950488;28;20108;-66
2022/01/17 00:38:58;;;;;;;39.80;15.57;;;1.90;99.90;;;;;;4952093;28;20039;-66
2022/01/17 00:41:23;;;;;;;41.75;15.75;;;1.90;99.90;;;;;;4951715;28;20031;-66
2022/01/17 00:43:49;;;;;;;38.03;14.60;;;1.90;99.90;;;;;;4954583;28;20031;-65
2022/01/17 00:46:15;;;;;;;41.15;15.23;;;1.90;99.90;;;;;;4953614;28;20054;-67
2022/01/17 00:48:41;;;;;;;38.83;15.07;;;1.90;99.90;;;;;;4950389;28;20039;-67
2022/01/17 00:51:07;;;;;;;37.58;14.48;;;1.90;99.90;;;;;;4952286;28;20031;-66
2022/01/17 00:53:36;;;;;;;43.78;15.65;;;2.00;99.90;;;;;;4951919;28;20684;-66
2022/01/17 00:56:03;;;;;;;38.00;14.00;;;2.00;99.90;;;;;;4950339;28;20031;-66
2022/01/17 00:58:29;;;;;;;39.75;14.00;;;2.00;99.90;;;;;;4952392;28;20046;-65
2022/01/17 01:00:54;;;;;;;35.75;14.80;;;2.00;99.90;;;;;;4945670;29;20027;-66
2022/01/17 01:03:21;;;;;;;41.83;15.73;;;2.00;99.90;;;;;;4945251;28;20075;-66
2022/01/17 01:05:47;;;;;;;40.17;14.90;;;2.00;99.90;;;;;;4951409;28;20471;-66
2022/01/17 01:08:12;;;;;;;36.92;15.48;;;2.10;99.90;;;;;;4951833;28;20059;-65
2022/01/17 01:10:38;;;;;;;37.58;13.93;;;2.10;99.90;;;;;;4950301;28;20539;-66
2022/01/17 01:13:04;;;;;;;39.03;15.27;;;2.00;99.90;;;;;;4951137;28;20023;-67
2022/01/17 01:18:37;;;;;;;40.90;14.68;;;2.00;99.90;;;;;;4932416;28;20040;-67
2022/01/17 01:29:21;;;;;;;40.60;14.40;;;2.00;99.90;;;;;;4948557;28;20791;-66
2022/01/17 01:31:58;;;;;;;37.03;14.88;;;2.00;99.90;;;;;;4950766;28;20473;-66
2022/01/17 01:34:34;;;;;;;33.55;13.60;;;2.00;99.90;;;;;;4950333;28;20043;-65
2022/01/17 01:37:02;;;;;;;36.65;13.45;;;2.00;99.90;;;;;;4949609;28;20035;-66
2022/01/17 01:39:28;;;;;;;36.50;13.43;;;2.00;99.90;;;;;;4949362;28;20449;-67
2022/01/17 01:41:53;;;;;;;36.10;14.55;;;2.00;99.90;;;;;;4952229;28;20039;-66
2022/01/17 01:44:22;;;;;;;35.78;13.75;;;2.00;99.90;;;;;;4952595;28;20035;-67
2022/01/17 01:46:49;;;;;;;34.88;12.93;;;2.00;99.90;;;;;;4950836;28;20055;-67
2022/01/17 01:49:16;;;;;;;37.22;13.57;;;2.00;99.90;;;;;;4951439;29;20431;-66
2022/01/17 01:51:43;;;;;;;36.78;14.80;;;2.00;99.90;;;;;;4949595;28;20039;-66
2022/01/17 01:54:09;;;;;;;36.72;13.80;;;2.00;99.90;;;;;;4948028;28;20391;-66
2022/01/17 01:56:42;;;;;;;37.42;14.27;;;1.90;99.90;;;;;;4952080;28;20035;-66
2022/01/17 01:59:07;;;;;;;36.45;14.00;;;2.00;99.90;;;;;;4948482;28;20027;-67
2022/01/17 02:01:33;;;;;;;37.25;13.60;;;2.00;99.90;;;;;;4949769;28;20481;-66
2022/01/17 02:04:00;;;;;;;37.35;13.45;;;2.00;99.90;;;;;;4950176;28;20114;-66
2022/01/17 02:06:25;;;;;;;39.80;13.43;;;2.00;99.90;;;;;;4949398;28;20169;-66
2022/01/17 02:08:51;;;;;;;37.88;14.05;;;2.00;99.90;;;;;;4949885;28;20118;-66
2022/01/17 02:11:17;;;;;;;39.75;14.20;;;2.00;99.90;;;;;;4949003;28;20047;-66
2022/01/17 02:13:43;;;;;;;37.10;13.88;;;2.00;99.90;;;;;;4950727;28;20114;-66
2022/01/17 02:16:15;;;;;;;34.40;13.90;;;2.00;99.90;;;;;;4949259;28;20039;-66
2022/01/17 02:18:45;;;;;;;38.45;15.10;;;1.90;99.90;;;;;;4951086;28;20492;-66
2022/01/17 02:23:45;;;;;;;43.50;15.77;;;1.90;99.90;;;;;;4950141;28;20050;-67
2022/01/17 02:26:12;;;;;;;44.72;16.70;;;2.00;99.90;;;;;;4947715;28;20031;-65
2022/01/17 02:28:43;;;;;;;42.88;16.60;;;1.90;99.90;;;;;;4949578;28;20403;-67
2022/01/17 02:31:11;;;;;;;48.65;17.15;;;1.90;99.90;;;;;;4949647;28;20181;-66
2022/01/17 02:33:37;;;;;;;47.42;16.95;;;1.90;99.90;;;;;;4941835;28;20078;-68
2022/01/17 02:36:03;;;;;;;48.38;17.75;;;1.90;99.90;;;;;;4948120;28;20114;-66
2022/01/17 02:38:29;;;;;;;52.15;19.17;;;1.90;99.90;;;;;;4950262;28;20118;-65
2022/01/17 02:40:55;;;;;;;48.58;18.08;;;1.90;99.90;;;;;;4948015;28;20130;-66
2022/01/17 02:43:22;;;;;;;52.10;18.85;;;1.80;99.90;;;;;;4949652;28;20035;-66
2022/01/17 02:48:22;;;;;;;63.58;20.15;;;1.80;99.90;;;;;;4947244;28;20039;-66
2022/01/17 02:50:48;;;;;;;54.95;20.00;;;1.80;99.90;;;;;;4950140;28;21923;-67
2022/01/17 02:53:20;;;;;;;55.38;19.30;;;1.80;99.90;;;;;;4949485;28;20063;-67
2022/01/17 02:55:54;;;;;;;57.45;19.25;;;1.80;99.90;;;;;;4949595;28;20031;-66
2022/01/17 02:58:23;;;;;;;57.20;20.80;;;1.70;99.90;;;;;;4949318;28;20028;-66
2022/01/17 03:00:54;;;;;;;58.80;21.58;;;1.70;99.90;;;;;;4949401;28;20524;-67
2022/01/17 03:03:23;;;;;;;57.67;20.08;;;1.80;99.90;;;;;;4949817;28;20027;-66
2022/01/17 03:05:55;;;;;;;57.33;22.30;;;1.80;99.90;;;;;;4950065;28;20039;-67
2022/01/17 03:08:22;;;;;;;60.38;21.45;;;1.70;99.90;;;;;;4944761;28;20267;-67
2022/01/17 03:10:49;;;;;;;60.17;20.40;;;1.70;99.90;;;;;;4949353;28;20059;-67
2022/01/17 03:13:20;;;;;;;60.38;20.75;;;1.80;99.90;;;;;;4946780;28;20024;-67
2022/01/17 03:15:53;;;;;;;59.42;20.80;;;1.80;99.90;;;;;;4951107;28;20031;-66
2022/01/17 03:18:23;;;;;;;56.55;20.88;;;1.70;99.90;;;;;;4946987;28;20388;-66
2022/01/17 03:20:49;;;;;;;67.23;21.70;;;1.80;99.90;;;;;;4949396;28;20056;-67
2022/01/17 03:23:15;;;;;;;60.03;20.50;;;1.70;99.90;;;;;;4949351;29;20027;-66
2022/01/17 03:25:41;;;;;;;63.42;20.63;;;1.60;99.90;;;;;;4949099;28;20099;-66
2022/01/17 03:28:06;;;;;;;66.50;21.80;;;1.60;99.90;;;;;;4948895;28;20039;-66
2022/01/17 03:30:33;;;;;;;68.43;23.63;;;1.60;99.90;;;;;;4946809;28;20031;-66
2022/01/17 03:33:09;;;;;;;62.92;23.10;;;1.50;99.90;;;;;;4947485;28;20409;-66
2022/01/17 03:35:38;;;;;;;64.20;22.65;;;1.50;99.90;;;;;;4949563;28;20031;-66
2022/01/17 03:38:07;;;;;;;73.00;22.42;;;1.50;99.90;;;;;;4946378;28;20046;-66
2022/01/17 03:40:33;;;;;;;66.10;22.85;;;1.50;99.90;;;;;;4949730;28;20039;-65
2022/01/17 03:42:59;;;;;;;67.57;22.80;;;1.50;99.90;;;;;;4947517;28;20039;-65
2022/01/17 03:45:25;;;;;;;71.90;22.95;;;1.50;99.90;;;;;;4949038;28;20059;-65
2022/01/17 03:47:51;;;;;;;65.32;21.90;;;1.50;99.90;;;;;;4946219;28;20040;-67
2022/01/17 03:50:21;;;;;;;63.80;21.88;;;1.50;99.90;;;;;;4948401;28;20031;-67
2022/01/17 03:52:48;;;;;;;68.03;21.50;;;1.50;99.90;;;;;;4949255;28;20034;-67
2022/01/17 03:55:16;;;;;;;65.38;21.95;;;1.60;99.90;;;;;;4946020;28;20067;-66
2022/01/17 03:57:44;;;;;;;69.57;22.77;;;1.60;99.90;;;;;;4948237;28;20039;-67
2022/01/17 04:00:20;;;;;;;64.68;21.33;;;1.60;99.90;;;;;;4947783;28;20027;-67
2022/01/17 04:02:46;;;;;;;62.92;22.17;;;1.60;99.90;;;;;;4946591;28;20031;-66
2022/01/17 04:05:12;;;;;;;66.10;22.25;;;1.60;99.90;;;;;;4949469;28;20614;-65
2022/01/17 04:07:38;;;;;;;62.05;21.83;;;1.60;99.90;;;;;;4949652;28;20051;-65
2022/01/17 04:10:04;;;;;;;69.88;22.40;;;1.60;99.90;;;;;;4949174;28;20079;-65
2022/01/17 04:12:30;;;;;;;64.28;20.60;;;1.60;99.90;;;;;;4948244;28;20115;-67
2022/01/17 04:14:56;;;;;;;69.43;23.67;;;1.50;99.90;;;;;;4943929;28;20134;-67
2022/01/17 04:17:27;;;;;;;67.32;22.30;;;1.50;99.90;;;;;;4949621;29;20070;-67
2022/01/17 04:19:59;;;;;;;70.07;23.00;;;1.50;99.90;;;;;;4950203;28;20042;-66
2022/01/17 04:22:26;;;;;;;72.60;21.98;;;1.40;99.90;;;;;;4948537;28;20091;-65
2022/01/17 04:24:52;;;;;;;68.20;23.75;;;1.40;99.90;;;;;;4948423;28;20038;-67
2022/01/17 04:27:17;;;;;;;66.07;22.30;;;1.40;99.90;;;;;;4949393;28;20130;-66
2022/01/17 04:29:43;;;;;;;70.80;21.17;;;1.40;99.90;;;;;;4949708;28;20126;-67
2022/01/17 04:32:09;;;;;;;71.35;23.20;;;1.40;99.90;;;;;;4949500;29;20036;-66
2022/01/17 04:34:34;;;;;;;70.85;23.15;;;1.40;99.90;;;;;;4949482;29;20031;-64
2022/01/17 04:37:02;;;;;;;69.38;23.83;;;1.40;99.90;;;;;;4948856;28;20090;-65
2022/01/17 04:39:28;;;;;;;73.75;22.83;;;1.40;99.90;;;;;;4950045;28;20427;-67
2022/01/17 04:41:56;;;;;;;66.50;23.77;;;1.50;99.90;;;;;;4948859;28;20063;-67
2022/01/17 04:47:06;;;;;;;71.32;24.13;;;1.40;99.90;;;;;;4951953;28;20927;-67
2022/01/17 04:49:31;;;;;;;66.65;23.05;;;1.40;99.90;;;;;;4951622;29;20146;-65
2022/01/17 04:51:57;;;;;;;75.72;23.98;;;1.50;99.90;;;;;;4952753;28;20098;-66
2022/01/17 04:56:54;;;;;;;70.57;22.48;;;1.50;99.90;;;;;;4945959;29;20035;-66
2022/01/17 04:59:20;;;;;;;66.80;22.67;;;1.50;99.90;;;;;;4945482;28;20035;-65
2022/01/17 05:01:45;;;;;;;74.93;24.60;;;1.50;99.90;;;;;;4952256;28;20042;-65
2022/01/17 05:04:11;;;;;;;71.57;24.83;;;1.50;99.90;;;;;;4950613;28;20042;-66
2022/01/17 05:06:40;;;;;;;76.97;24.13;;;1.60;99.90;;;;;;4952429;28;20036;-64
2022/01/17 05:09:08;;;;;;;71.57;23.85;;;1.50;99.90;;;;;;4951649;28;20043;-64
2022/01/17 05:11:34;;;;;;;77.90;24.75;;;1.50;99.90;;;;;;4954728;28;20476;-64
2022/01/17 05:14:00;;;;;;;77.60;24.10;;;1.40;99.90;;;;;;4966721;28;20027;-66
2022/01/17 05:16:33;;;;;;;74.07;24.35;;;1.50;99.90;;;;;;4952419;28;20039;-66
2022/01/17 05:21:43;;;;;;;71.97;24.27;;;1.50;99.90;;;;;;4946839;28;20149;-65
2022/01/17 05:24:09;;;;;;;75.15;25.17;;;1.50;99.90;;;;;;4951662;28;20058;-64
2022/01/17 05:26:34;;;;;;;71.72;24.05;;;1.50;99.90;;;;;;4951445;28;20523;-65
2022/01/17 05:29:00;;;;;;;76.15;23.88;;;1.50;99.90;;;;;;4959235;28;20042;-65
2022/01/17 05:31:25;;;;;;;67.90;22.73;;;1.50;99.90;;;;;;4951902;28;20045;-64
2022/01/17 05:33:51;;;;;;;64.90;21.60;;;1.60;99.90;;;;;;4952434;28;20035;-64
2022/01/17 05:36:17;;;;;;;69.78;23.10;;;1.60;99.90;;;;;;4951290;28;20027;-64
2022/01/17 05:38:43;;;;;;;61.42;21.20;;;1.60;99.90;;;;;;4951956;29;20054;-65
2022/01/17 05:41:09;;;;;;;70.03;21.77;;;1.60;99.90;;;;;;4951082;28;20042;-65
2022/01/17 05:43:34;;;;;;;65.32;22.05;;;1.60;99.90;;;;;;4951601;28;20869;-64
2022/01/17 05:46:00;;;;;;;67.20;21.65;;;1.60;99.90;;;;;;4955716;28;20050;-65
2022/01/17 05:48:26;;;;;;;72.80;22.17;;;1.60;99.90;;;;;;4951309;28;20051;-63
2022/01/17 05:50:51;;;;;;;68.07;23.10;;;1.60;99.90;;;;;;4956389;28;20066;-64
2022/01/17 05:53:17;;;;;;;67.88;21.95;;;1.60;99.90;;;;;;4953055;28;20026;-64
2022/01/17 05:55:44;;;;;;;64.82;22.27;;;1.60;99.90;;;;;;4958048;28;20038;-63
2022/01/17 05:58:11;;;;;;;62.53;21.20;;;1.60;99.90;;;;;;4950228;28;20138;-63
2022/01/17 06:00:37;;;;;;;64.88;21.95;;;1.60;99.90;;;;;;4951112;28;20110;-66
2022/01/17 06:03:02;;;;;;;73.10;22.63;;;1.60;99.90;;;;;;4951545;28;20567;-64
2022/01/17 06:05:28;;;;;;;65.13;21.08;;;1.60;99.90;;;;;;4951329;29;20387;-65
2022/01/17 06:07:54;;;;;;;71.32;22.65;;;1.60;99.90;;;;;;4958452;28;20055;-64
2022/01/17 06:10:19;;;;;;;68.93;22.55;;;1.60;99.90;;;;;;4951866;28;20102;-64
2022/01/17 06:12:45;;;;;;;57.88;21.25;;;1.60;99.90;;;;;;4954169;28;20042;-64
2022/01/17 06:15:11;;;;;;;64.60;18.85;;;1.60;99.90;;;;;;4950475;28;20086;-65
2022/01/17 06:17:37;;;;;;;67.47;19.85;;;1.60;99.90;;;;;;4950949;28;20043;-64
2022/01/17 06:20:04;;;;;;;66.72;22.42;;;1.60;99.90;;;;;;4950650;28;20103;-65
2022/01/17 06:22:30;;;;;;;69.63;23.13;;;1.60;99.90;;;;;;4949794;28;20080;-65
2022/01/17 06:24:55;;;;;;;74.25;22.80;;;1.60;99.90;;;;;;4950722;28;20117;-64
2022/01/17 06:27:21;;;;;;;72.47;24.02;;;1.60;99.90;;;;;;4949929;28;20050;-66
2022/01/17 06:29:47;;;;;;;64.13;21.90;;;1.60;99.90;;;;;;4951101;28;20115;-65
2022/01/17 06:32:13;;;;;;;67.05;21.88;;;1.60;99.90;;;;;;4950385;28;20203;-65
2022/01/17 06:34:38;;;;;;;70.85;23.70;;;1.60;99.90;;;;;;4949156;28;20094;-66
2022/01/17 06:37:04;;;;;;;68.95;20.73;;;1.60;99.90;;;;;;4949473;28;20030;-64
2022/01/17 06:39:30;;;;;;;67.28;22.77;;;1.60;99.90;;;;;;4952126;28;20189;-64
2022/01/17 06:41:55;;;;;;;82.60;24.40;;;1.60;99.90;;;;;;4951001;28;20129;-65
2022/01/17 06:44:21;;;;;;;73.68;21.67;;;1.60;99.90;;;;;;4949468;28;20023;-64
2022/01/17 06:46:47;;;;;;;68.05;21.95;;;1.60;99.90;;;;;;4951113;28;20045;-64
2022/01/17 06:49:13;;;;;;;67.03;22.85;;;1.60;99.90;;;;;;4948530;28;20118;-65
2022/01/17 06:51:39;;;;;;;72.20;22.98;;;1.60;99.90;;;;;;4950445;29;20414;-66
2022/01/17 06:54:04;;;;;;;64.68;21.02;;;1.60;99.90;;;;;;4953268;28;20039;-66
2022/01/17 06:56:30;;;;;;;61.17;21.17;;;1.70;99.90;;;;;;4949383;28;20037;-62
2022/01/17 06:58:56;;;;;;;63.33;20.38;;;1.70;99.90;;;;;;4950042;28;20161;-64
2022/01/17 07:01:22;;;;;;;56.25;20.17;;;1.70;99.90;;;;;;4949626;28;20625;-65
2022/01/17 07:03:50;;;;;;;59.63;20.42;;;1.70;99.90;;;;;;4951242;28;20038;-66
2022/01/17 07:06:16;;;;;;;61.47;19.90;;;1.80;99.90;;;;;;4948769;28;20031;-65
2022/01/17 07:08:45;;;;;;;57.97;19.33;;;1.70;99.90;;;;;;4949809;28;20055;-65
2022/01/17 07:11:14;;;;;;;53.97;18.27;;;1.70;99.90;;;;;;4950016;28;20654;-65
2022/01/17 07:13:39;;;;;;;45.25;16.55;;;1.70;99.90;;;;;;4950647;28;20109;-65
2022/01/17 07:16:05;;;;;;;54.20;17.83;;;1.80;99.90;;;;;;4948354;28;20064;-66
2022/01/17 07:18:31;;;;;;;50.53;16.00;;;1.80;99.90;;;;;;4950537;28;20090;-65
2022/01/17 07:20:56;;;;;;;47.88;16.55;;;1.80;99.90;;;;;;4951834;28;20035;-65
2022/01/17 07:23:22;;;;;;;47.75;16.95;;;1.80;99.90;;;;;;4951929;28;20027;-63
2022/01/17 07:25:48;;;;;;;45.85;16.55;;;1.80;99.90;;;;;;4950030;28;20039;-63
2022/01/17 07:28:14;;;;;;;40.05;14.98;;;1.80;99.90;;;;;;4948545;28;20577;-63
2022/01/17 07:30:40;;;;;;;39.28;13.77;;;1.90;99.90;;;;;;4950809;28;20027;-64
2022/01/17 07:33:07;;;;;;;45.03;16.00;;;1.90;99.90;;;;;;4948935;28;20027;-66
2022/01/17 07:35:35;;;;;;;47.00;16.60;;;2.00;99.90;;;;;;4950354;28;20122;-65
2022/01/17 07:38:00;;;;;;;44.65;16.42;;;2.00;99.90;;;;;;4950120;28;20042;-64
2022/01/17 07:40:26;;;;;;;49.55;17.23;;;2.00;99.90;;;;;;4947548;28;20027;-63
2022/01/17 07:42:52;;;;;;;45.20;16.15;;;1.90;99.90;;;;;;4957456;28;20027;-64
2022/01/17 07:45:19;;;;;;;46.08;15.90;;;2.00;99.90;;;;;;4949233;28;20483;-66
2022/01/17 07:48:45;;;;;;;41.00;15.10;;;2.00;99.90;;;;;;4955341;28;20545;-64
2022/01/17 07:50:31;;;;;;;43.35;14.55;;;2.00;99.90;;;;;;4945529;28;20069;-63
2022/01/17 07:52:57;;;;;;;45.50;15.82;;;2.10;99.90;;;;;;4950080;29;20484;-64
2022/01/17 07:55:23;;;;;;;43.47;16.00;;;2.10;99.90;;;;;;4948563;28;20401;-65
2022/01/17 07:57:49;;;;;;;45.90;16.48;;;2.10;99.90;;;;;;4949889;28;20384;-64
2022/01/17 08:00:22;;;;;;;48.90;16.73;;;2.10;99.90;;;;;;4948026;28;20035;-66
2022/01/17 08:02:49;;;;;;;49.95;17.98;;;2.10;99.90;;;;;;4947975;28;20039;-64
2022/01/17 08:05:15;;;;;;;51.53;18.98;;;2.10;99.90;;;;;;4948642;28;20428;-63
2022/01/17 08:07:42;;;;;;;56.60;19.27;;;2.10;99.90;;;;;;4949474;28;20059;-63
2022/01/17 08:10:12;;;;;;;55.80;19.42;;;2.00;99.90;;;;;;4947744;28;20480;-65
2022/01/17 08:12:39;;;;;;;51.95;18.27;;;2.00;99.90;;;;;;4966993;28;20111;-64
2022/01/17 08:15:05;;;;;;;60.33;19.38;;;2.00;99.90;;;;;;4948839;28;20114;-66
2022/01/17 08:17:31;;;;;;;55.72;17.95;;;1.90;99.90;;;;;;4948879;28;20035;-64
2022/01/17 08:19:57;;;;;;;55.08;19.05;;;2.00;99.90;;;;;;4945324;28;20475;-66
2022/01/17 08:22:23;;;;;;;54.22;20.20;;;2.00;99.90;;;;;;4952457;28;20031;-67
2022/01/17 08:24:49;;;;;;;58.17;19.25;;;1.90;99.90;;;;;;4953301;28;20387;-67
2022/01/17 08:27:15;;;;;;;60.10;18.98;;;1.90;99.90;;;;;;4952547;28;20023;-64
2022/01/17 08:29:41;;;;;;;53.45;18.23;;;1.90;99.90;;;;;;4950386;28;20377;-64
2022/01/17 08:32:07;;;;;;;56.55;20.00;;;2.00;99.90;;;;;;4953083;28;20079;-69
2022/01/17 08:34:33;;;;;;;57.20;19.88;;;2.00;99.90;;;;;;4953114;28;20040;-65
2022/01/17 08:36:59;;;;;;;66.40;21.30;;;2.00;99.90;;;;;;4953205;28;20031;-65
2022/01/17 08:39:25;;;;;;;65.57;21.00;;;1.90;99.90;;;;;;4949912;28;20035;-66
2022/01/17 08:41:52;;;;;;;58.45;20.67;;;1.90;99.90;;;;;;4953617;28;20027;-67
2022/01/17 08:44:19;;;;;;;62.25;21.90;;;2.00;99.90;;;;;;4950235;28;20472;-65
2022/01/17 08:46:46;;;;;;;67.55;22.83;;;1.90;99.90;;;;;;4952814;28;20107;-64
2022/01/17 08:49:12;;;;;;;66.80;22.10;;;1.90;99.90;;;;;;4952686;28;20070;-64
2022/01/17 08:51:38;;;;;;;65.18;22.05;;;1.90;99.90;;;;;;4950748;29;20082;-66
2022/01/17 08:54:06;;;;;;;67.80;21.90;;;1.90;99.90;;;;;;4953432;28;20095;-67
2022/01/17 08:56:32;;;;;;;58.42;21.77;;;2.00;99.90;;;;;;4950825;28;20114;-65
2022/01/17 08:58:59;;;;;;;63.53;22.52;;;2.00;99.90;;;;;;4951308;29;20039;-64
2022/01/17 09:01:26;;;;;;;59.20;21.17;;;2.00;99.90;;;;;;4959187;28;20106;-64
2022/01/17 09:03:52;;;;;;;56.92;21.25;;;2.00;99.90;;;;;;4952981;28;20516;-64
2022/01/17 09:06:18;;;;;;;64.43;22.55;;;2.10;99.90;;;;;;4951624;28;20035;-66
2022/01/17 09:08:44;;;;;;;64.30;21.60;;;2.10;99.90;;;;;;4951269;28;20051;-66
2022/01/17 09:11:10;;;;;;;57.42;20.58;;;2.10;99.90;;;;;;4951685;28;20111;-67
2022/01/17 09:13:36;;;;;;;57.78;21.30;;;2.10;99.90;;;;;;4955117;28;20586;-65
2022/01/17 09:16:02;;;;;;;56.03;20.63;;;2.10;99.90;;;;;;4950977;28;20118;-65
2022/01/17 09:18:28;;;;;;;60.80;20.13;;;2.10;99.90;;;;;;4952020;28;20498;-65
2022/01/17 09:20:54;;;;;;;59.90;19.98;;;2.20;99.90;;;;;;4952553;28;20716;-67
2022/01/17 09:23:21;;;;;;;54.00;20.08;;;2.20;99.90;;;;;;4951201;28;20027;-65
2022/01/17 09:25:47;;;;;;;58.10;19.83;;;2.10;99.90;;;;;;4952196;28;20035;-65
2022/01/17 09:28:12;;;;;;;56.95;19.15;;;2.10;99.90;;;;;;4950047;28;20061;-66
2022/01/17 09:30:38;;;;;;;58.08;20.35;;;2.20;99.90;;;;;;4951537;28;20042;-67
2022/01/17 09:33:05;;;;;;;55.25;19.27;;;2.20;99.90;;;;;;4951400;29;20031;-65
2022/01/17 09:35:32;;;;;;;53.30;18.85;;;2.20;99.90;;;;;;4951220;28;20475;-66
2022/01/17 09:37:58;;;;;;;51.17;18.30;;;2.30;99.90;;;;;;4952439;28;20506;-65
2022/01/17 09:40:25;;;;;;;47.00;18.50;;;2.30;99.90;;;;;;4951129;28;20602;-67
2022/01/17 09:42:50;;;;;;;51.97;19.38;;;2.30;99.90;;;;;;4951612;29;20033;-66
2022/01/17 09:45:19;;;;;;;58.10;20.35;;;2.40;99.90;;;;;;4947194;28;20031;-67
2022/01/17 09:47:46;;;;;;;50.65;19.60;;;2.30;99.90;;;;;;4957665;28;20035;-69
2022/01/17 09:50:18;;;;;;;53.15;19.20;;;2.40;99.90;;;;;;4951756;28;20031;-67
2022/01/17 09:52:47;;;;;;;51.20;18.70;;;2.40;99.90;;;;;;4951036;28;20037;-67
2022/01/17 09:55:21;;;;;;;48.03;18.30;;;2.50;99.90;;;;;;4946552;28;20480;-65
2022/01/17 09:58:06;;;;;;;47.35;18.02;;;2.50;99.90;;;;;;4951981;28;20031;-64
2022/01/17 10:00:40;;;;;;;47.90;17.70;;;2.50;99.90;;;;;;4948680;28;20116;-67
2022/01/17 10:03:12;;;;;;;44.85;16.13;;;2.50;99.90;;;;;;4949763;29;20035;-66
2022/01/17 10:05:39;;;;;;;48.40;17.17;;;2.60;99.90;;;;;;4950978;28;20039;-65
2022/01/17 10:08:11;;;;;;;45.15;17.02;;;2.60;99.90;;;;;;4950892;28;20047;-67
2022/01/17 10:10:52;;;;;;;43.72;16.63;;;2.60;99.90;;;;;;4951162;28;20039;-65
2022/01/17 10:13:32;;;;;;;44.20;16.70;;;2.60;99.90;;;;;;4950764;28;20033;-66
2022/01/17 10:16:05;;;;;;;46.00;16.77;;;2.60;99.90;;;;;;4951535;28;20039;-65
2022/01/17 10:18:49;;;;;;;41.55;15.48;;;2.60;99.90;;;;;;4951078;28;20042;-65
2022/01/17 10:21:44;;;;;;;39.85;14.98;;;2.70;99.90;;;;;;4949455;28;20054;-64
2022/01/17 10:24:26;;;;;;;38.00;14.15;;;2.70;99.90;;;;;;4949097;28;20031;-65
2022/01/17 10:35:32;;;;;;;43.80;14.77;;;2.70;99.90;;;;;;4951014;28;20082;-65
2022/01/17 10:38:06;;;;;;;36.75;13.98;;;2.80;99.90;;;;;;4949560;28;20058;-68
2022/01/17 10:40:59;;;;;;;40.60;14.65;;;2.90;99.90;;;;;;4950320;28;20031;-67
2022/01/17 10:43:36;;;;;;;40.78;14.60;;;2.80;99.90;;;;;;4946339;28;20025;-66
2022/01/17 10:46:12;;;;;;;35.22;13.65;;;2.90;99.90;;;;;;4956405;28;20031;-66
2022/01/17 10:48:42;;;;;;;32.53;13.65;;;2.90;99.90;;;;;;4953472;28;20054;-66
2022/01/17 10:51:10;;;;;;;34.05;13.40;;;2.90;99.90;;;;;;4950570;29;20027;-66
2022/01/17 10:53:40;;;;;;;32.30;12.85;;;3.00;99.90;;;;;;4948780;28;20035;-68
2022/01/17 10:56:09;;;;;;;28.52;11.55;;;3.00;99.90;;;;;;4946845;28;20042;-68
2022/01/17 10:58:38;;;;;;;29.38;11.63;;;3.00;99.90;;;;;;4950620;28;20039;-68
2022/01/17 11:01:16;;;;;;;25.95;10.75;;;3.10;99.90;;;;;;4950429;28;20035;-67
2022/01/17 11:03:44;;;;;;;29.90;11.95;;;3.10;99.90;;;;;;4947710;28;20039;-66
2022/01/17 11:06:19;;;;;;;28.35;10.80;;;3.10;99.90;;;;;;4947397;28;20123;-66
2022/01/17 11:08:46;;;;;;;25.02;11.07;;;3.00;99.90;;;;;;4949796;28;20091;-66
2022/01/17 11:11:12;;;;;;;33.70;13.05;;;3.00;99.90;;;;;;4950455;28;20161;-67
2022/01/17 11:13:47;;;;;;;30.17;11.48;;;3.10;99.90;;;;;;4949260;28;20649;-67
2022/01/17 11:16:13;;;;;;;28.02;10.98;;;3.20;99.90;;;;;;4948944;28;20031;-66
2022/01/17 11:18:45;;;;;;;25.73;10.38;;;3.20;99.90;;;;;;4956180;28;20304;-67
2022/01/17 11:21:14;;;;;;;23.08;10.07;;;3.30;99.90;;;;;;4950240;28;20432;-67
2022/01/17 11:23:49;;;;;;;28.08;10.30;;;3.40;99.90;;;;;;4949187;28;20075;-68
2022/01/17 11:26:16;;;;;;;26.13;10.45;;;3.40;99.90;;;;;;4949058;28;20494;-67
2022/01/17 11:28:43;;;;;;;26.52;11.18;;;3.30;99.90;;;;;;4949388;28;20046;-68
2022/01/17 11:31:13;;;;;;;24.48;10.55;;;3.30;99.90;;;;;;4950127;28;20083;-68
2022/01/17 11:33:39;;;;;;;30.25;10.45;;;3.30;99.90;;;;;;4955352;28;20038;-68
2022/01/17 11:36:05;;;;;;;27.42;11.00;;;3.40;99.90;;;;;;4957265;28;20058;-70
2022/01/17 11:38:35;;;;;;;21.58;10.23;;;3.50;99.90;;;;;;4949633;28;20042;-69
2022/01/17 11:41:03;;;;;;;24.02;9.57;;;3.60;99.90;;;;;;4949816;28;20031;-69
2022/01/17 11:43:35;;;;;;;24.77;9.05;;;3.60;99.90;;;;;;4948520;28;20492;-71
2022/01/17 11:46:22;;;;;;;23.33;9.57;;;3.50;99.90;;;;;;4952005;28;20372;-71
2022/01/17 11:48:59;;;;;;;26.77;9.95;;;3.50;99.90;;;;;;4949304;29;20054;-70
2022/01/17 11:51:40;;;;;;;22.77;9.73;;;3.50;99.90;;;;;;4947397;28;20082;-70
2022/01/17 11:54:26;;;;;;;24.40;9.57;;;3.60;99.90;;;;;;4949639;28;20035;-71
2022/01/17 11:56:57;;;;;;;23.35;10.27;;;3.70;99.90;;;;;;4948003;28;20050;-70
2022/01/17 11:59:34;;;;;;;26.70;10.23;;;3.70;99.90;;;;;;4949296;28;20106;-72
2022/01/17 12:02:20;;;;;;;22.52;9.30;;;3.80;99.90;;;;;;4948752;28;20057;-71
2022/01/17 12:05:23;;;;;;;24.17;9.90;;;3.70;99.90;;;;;;4950158;28;20031;-69
2022/01/17 12:07:55;;;;;;;18.45;8.55;;;3.70;99.90;;;;;;4892683;29;20132;-69
2022/01/17 12:10:27;;;;;;;21.50;8.30;;;3.70;99.90;;;;;;4938190;29;20452;-70
2022/01/17 12:13:15;;;;;;;23.02;8.55;;;3.70;99.90;;;;;;4948225;28;20487;-69
2022/01/17 12:15:58;;;;;;;19.98;8.55;;;3.70;99.90;;;;;;4944210;28;20020;-70
2022/01/17 12:18:52;;;;;;;24.08;8.77;;;3.70;99.90;;;;;;4942551;28;20063;-72
2022/01/17 12:21:30;;;;;;;19.05;8.85;;;3.70;99.90;;;;;;4941002;28;20039;-70
2022/01/17 12:24:14;;;;;;;22.17;8.82;;;3.70;99.90;;;;;;4947977;28;20480;-72
2022/01/17 12:26:40;;;;;;;21.20;9.13;;;3.80;99.90;;;;;;4947975;28;20035;-69
2022/01/17 12:29:06;;;;;;;18.17;7.82;;;3.90;99.90;;;;;;4952766;28;20039;-70
2022/01/17 12:31:47;;;;;;;22.38;9.10;;;3.90;99.90;;;;;;4948822;29;20114;-68
2022/01/17 12:34:23;;;;;;;21.00;8.75;;;3.90;99.90;;;;;;4948510;28;20246;-68
2022/01/17 12:36:54;;;;;;;20.10;8.77;;;3.90;99.90;;;;;;4944348;28;20038;-68
2022/01/17 12:39:21;;;;;;;19.13;7.80;;;3.80;99.90;;;;;;4949674;28;20039;-73
2022/01/17 12:41:49;;;;;;;23.70;9.25;;;3.80;99.90;;;;;;4948282;28;20564;-68
2022/01/17 12:44:22;;;;;;;19.23;8.38;;;3.80;99.90;;;;;;4951177;28;20031;-68
2022/01/17 12:46:51;;;;;;;16.98;8.07;;;3.80;99.90;;;;;;4952171;28;20035;-69
2022/01/17 12:49:18;;;;;;;19.20;8.15;;;3.80;99.90;;;;;;4947793;28;20040;-69
2022/01/17 12:51:50;;;;;;;18.63;8.35;;;3.70;99.90;;;;;;4947310;28;20023;-68
2022/01/17 12:54:18;;;;;;;20.90;8.93;;;3.70;99.90;;;;;;4946690;28;20158;-72
2022/01/17 12:56:47;;;;;;;22.00;8.95;;;3.60;99.90;;;;;;4945438;29;20027;-72
2022/01/17 12:59:16;;;;;;;22.77;9.68;;;3.50;99.90;;;;;;4949363;29;20046;-70
2022/01/17 13:01:54;;;;;;;25.20;9.45;;;3.50;99.90;;;;;;4948027;28;20019;-68
2022/01/17 13:04:20;;;;;;;23.15;8.75;;;3.40;99.90;;;;;;4949641;28;20034;-70
2022/01/17 13:06:48;;;;;;;24.65;9.68;;;3.40;99.90;;;;;;4946857;28;20066;-71
2022/01/17 13:09:20;;;;;;;24.77;9.05;;;3.30;99.90;;;;;;4952966;28;20039;-70
2022/01/17 13:11:47;;;;;;;25.63;10.38;;;3.40;99.90;;;;;;4950471;28;20027;-70
2022/01/17 13:14:18;;;;;;;23.10;9.05;;;3.40;99.90;;;;;;4950729;28;20134;-70
2022/01/17 13:16:45;;;;;;;22.75;9.13;;;3.40;99.90;;;;;;4951676;28;20118;-71
2022/01/17 13:19:14;;;;;;;25.63;10.07;;;3.30;99.90;;;;;;4950835;28;20038;-69